Weather observations for the past three days for
Harlan, Harlan Municipal Airport
Metric (Imperial)
Date Time (cdt) Wind (kph) Vis. (km) Weather Sky Cond. Temperature (ºC) Relative Humidity Wind Chill (°C) Heat Index (°C) Pressure Precipitation (cm)
Air Dwpt 6 hour altimeter (cm) sea level (mb) 1 hr 3 hr 6 hr
Max. Min.
03 19:55 W 9 16.09 Fair CLR 19 2 32% 75.62 0.0
03 19:35 W 15 16.09 Fair CLR 20 3 33% 75.62 0.0
03 19:15 W 15 16.09 Fair CLR 21 3 31% 75.62 0.0
03 18:55 W 17 16.09 Fair CLR 21 3 31% 75.64 0.0
03 18:35 NW 13 G 22 16.09 Fair CLR 22 3 29% 75.64 0.0
03 18:15 NW 15 16.09 Fair CLR 22 2 27% 75.67 0.0
03 17:55 Vrbl 11 G 20 16.09 Fair CLR 22 3 29% 75.67 0.0
03 17:35 W 24 G 33 16.09 Fair CLR 22 2 27% 75.67 0.0
03 17:15 NW 19 G 30 16.09 Fair CLR 22 2 27% 75.67 0.0
03 16:55 NW 17 16.09 Fair CLR 22 3 29% 75.67 0.0
03 16:35 NW 24 G 33 16.09 Fair CLR 22 2 27% 75.69 0.0
03 16:15 NW 11 G 30 16.09 Fair CLR 22 2 27% 75.72 0.0
03 15:55 N 26 16.09 Fair CLR 22 2 27% 75.72 0.0
03 15:35 NW 30 G 39 16.09 Fair CLR 22 1 25% 75.74 0.0
03 15:15 NW 15 G 35 16.09 Fair CLR 21 2 29% 75.77 0.0
03 14:55 N 22 G 39 16.09 Fair CLR 22 1 25% 75.77 0.0
03 14:35 N 31 16.09 Fair CLR 22 1 25% 75.77 0.0
03 14:15 NW 26 G 39 16.09 Fair CLR 21 1 27% 75.79 0.0
03 13:55 N 33 G 48 16.09 Fair and Breezy CLR 21 1 27% 75.79 0.0
03 13:35 N 19 G 35 16.09 Fair CLR 21 2 29% 75.82 0.0
03 13:15 NW 28 G 41 16.09 Fair CLR 21 2 29% 75.82 0.0
03 12:55 NW 31 16.09 Fair CLR 21 2 29% 75.82 0.0
03 12:35 NW 28 G 41 16.09 Fair CLR 21 4 33% 75.82 0.0
03 12:15 N 22 G 37 16.09 Fair CLR 20 3 33% 75.84 0.0
03 11:55 N 24 G 39 16.09 Fair CLR 20 3 33% 75.84 0.0
03 11:35 NW 20 G 33 16.09 Fair CLR 19 3 35% 75.84 0.0
03 11:15 N 17 16.09 Fair CLR 19 4 37% 75.84 0.0
03 10:55 NW 13 G 24 16.09 Fair CLR 19 4 37% 75.82 0.0
03 10:35 NW 15 16.09 Fair CLR 17 5 45% 75.82 0.0
03 10:15 NW 17 G 28 16.09 Fair CLR 17 5 45% 75.82 0.0
03 09:55 NW 19 16.09 Fair CLR 16 4 45% 75.82 0.0
03 09:35 W 19 16.09 Fair CLR 15 4 48% 75.82 0.0
03 09:15 NW 17 16.09 Fair CLR 16 4 45% 75.82 0.0
03 08:55 SW 13 G 22 16.09 Fair CLR 14 3 48% 75.79 0.0
03 08:35 W 22 16.09 Fair CLR 14 3 48% 75.79 0.0
03 08:15 SW 17 G 28 16.09 Fair CLR 13 2 47% 75.79 0.0
03 07:55 SW 22 16.09 Fair CLR 13 2 47% 75.77 0.0
03 07:35 SW 20 16.09 Fair CLR 13 2 47% 75.77 0.0
03 07:15 SW 20 16.09 Fair CLR 11 2 54% 75.77 0.0
03 06:55 S 11 16.09 Fair CLR 9 2 62% 8 75.77 0.0
03 06:35 S 15 16.09 Fair CLR 8 1 62% 6 75.77 0.0
03 06:15 S 15 16.09 Fair CLR 6 1 71% 3 75.74 0.0
03 05:35 SW 7 16.09 Fair CLR 7 1 66% 6 75.82 0.0
03 05:15 W 7 16.09 Fair CLR 8 1 62% 7 75.82 0.0
03 04:55 W 11 16.09 Fair CLR 8 1 62% 6 75.82 0.0
03 04:35 SW 19 16.09 Fair CLR 9 1 58% 7 75.74 0.0
03 04:15 S 15 16.09 Fair CLR 9 1 58% 7 75.77 0.0
03 03:55 S 19 16.09 Fair CLR 9 1 58% 7 75.79 0.0
03 03:35 S 19 16.09 Fair CLR 9 1 58% 7 75.79 0.0
03 03:15 S 20 16.09 Fair CLR 9 1 58% 6 75.79 0.0
03 02:55 S 19 16.09 Fair CLR 9 1 58% 7 75.82 0.0
03 02:35 S 19 16.09 Fair CLR 9 0 54% 7 75.84 0.0
03 02:15 S 17 16.09 Fair CLR 9 0 54% 7 75.87 0.0
03 01:55 S 22 16.09 Fair CLR 10 0 50% 7 75.87 0.0
03 01:35 S 20 16.09 Fair CLR 10 0 50% 8 75.9 0.0
03 01:15 S 20 16.09 Fair CLR 10 0 50% 8 75.92 0.0
03 00:55 S 19 16.09 Fair CLR 10 0 50% 8 75.92 0.0
03 00:35 S 20 16.09 Fair CLR 11 0 47% 75.95 0.0
03 00:15 S 19 16.09 Fair CLR 11 0 47% 75.95 0.0
02 23:55 S 19 16.09 Fair CLR 11 -1 44% 75.95 0.0
02 23:35 S 17 G 26 16.09 Fair CLR 11 -1 44% 75.97 0.0
02 23:15 S 13 16.09 Fair CLR 10 -1 47% 8 76 0.0
02 22:55 S 13 16.09 Fair CLR 11 -1 44% 76 0.0
02 22:35 S 15 16.09 Fair CLR 11 -1 44% 76.02 0.0
02 22:15 S 13 16.09 Fair CLR 11 -1 44% 76.05 0.0
02 21:55 S 11 16.09 Fair CLR 11 -1 44% 76.05 0.0
02 21:35 S 11 16.09 Fair CLR 11 -1 44% 76.07 0.0
02 21:15 S 11 16.09 Fair CLR 12 -1 41% 76.07 0.0
02 20:55 S 11 16.09 A Few Clouds FEW120 13 -1 38% 76.1 0.0
02 20:35 S 11 16.09 A Few Clouds FEW120 13 -2 36% 76.1 0.0
02 20:15 S 13 16.09 Fair CLR 14 -1 36% 76.12 0.0
02 19:55 S 13 16.09 Fair CLR 15 -1 34% 76.12 0.0
02 19:35 SW 13 16.09 Fair CLR 16 -1 31% 76.12 0.0
02 19:15 SW 17 16.09 Fair CLR 17 -2 27% 76.15 0.0
02 18:55 SW 17 16.09 Fair CLR 17 -2 27% 76.15 0.0
02 18:35 SW 13 G 28 16.09 Fair CLR 17 -2 27% 76.17 0.0
02 18:15 W 19 G 28 16.09 Fair CLR 18 -2 26% 76.2 0.0
02 17:55 W 17 G 28 16.09 Fair CLR 18 -1 28% 76.23 0.0
02 17:35 SW 22 16.09 Fair CLR 18 -1 28% 76.23 0.0
02 17:15 W 24 16.09 Fair CLR 18 -1 28% 76.23 0.0
02 16:55 SW 20 G 37 16.09 Fair CLR 18 -2 26% 76.25 0.0
02 16:35 NW 19 G 37 16.09 Fair CLR 17 -3 25% 76.28 0.0
02 16:15 Calm 16.09 Fair CLR 17 -3 25% 76.28 0.0
02 15:55 W 11 16.09 Fair CLR 17 0 32% 76.33 0.0
02 15:35 NW 22 16.09 Fair CLR 17 -2 27% 76.35 0.0
02 15:15 W 19 16.09 Fair CLR 17 -1 30% 76.38 0.0
02 14:55 W 19 G 28 16.09 Fair CLR 16 -2 29% 76.4 0.0
02 14:35 W 15 G 30 16.09 Fair CLR 16 -1 31% 76.43 0.0
02 14:15 Calm 16.09 Fair CLR 16 -2 29% 76.45 0.0
02 13:55 W 17 G 28 16.09 Fair CLR 16 -1 31% 76.48 0.0
02 13:35 W 19 16.09 Fair CLR 15 -2 31% 76.48 0.0
02 13:15 NW 24 16.09 Fair CLR 15 -2 31% 76.5 0.0
02 12:55 NW 17 G 26 16.09 Fair CLR 15 -3 29% 76.5 0.0
02 12:35 NW 13 G 22 16.09 Fair CLR 14 -2 33% 76.53 0.0
02 12:15 Vrbl 11 G 24 16.09 Fair CLR 14 -4 29% 76.56 0.0
02 11:55 W 20 16.09 Fair CLR 14 -2 33% 76.56 0.0
02 11:35 NW 7 G 24 16.09 Fair CLR 13 -3 33% 76.58 0.0
02 11:15 W 13 G 22 16.09 Fair CLR 12 -3 35% 76.58 0.0
02 10:55 W 11 G 22 16.09 Fair CLR 12 -3 35% 76.61 0.0
02 10:35 W 11 G 22 16.09 Fair CLR 12 -3 35% 76.61 0.0
02 10:15 W 13 G 22 16.09 Fair CLR 11 -3 38% 76.61 0.0
02 09:55 W 15 16.09 Fair CLR 11 -2 41% 76.61 0.0
02 09:35 Vrbl 7 16.09 Fair CLR 10 -2 43% 9 76.63 0.0
02 09:15 Calm 16.09 Fair CLR 9 -2 46% 76.63 0.0
02 08:55 Calm 16.09 Fair CLR 7 0 61% 76.63 0.0
02 08:35 Calm 16.09 Fair CLR 5 0 70% 76.63 0.0
02 08:15 Calm 16.09 Fair CLR 3 -1 75% 76.63 0.0
02 07:55 Calm 16.09 Fair CLR 2 -1 81% 76.63 0.0
02 07:35 Calm 16.09 Fair CLR 0 -2 87% 76.63 0.0
02 07:15 Calm 16.09 Fair CLR -1 -3 86% 76.63 0.0
02 06:55 Calm 16.09 Fair CLR -2 -4 86% 76.61 0.0
02 06:35 Calm 16.09 Fair CLR -3 -4 93% 76.61 0.0
02 06:15 Calm 16.09 Fair CLR -3 -4 93% 76.58 0.0
02 05:55 Calm 16.09 Fair CLR -2 -4 86% 76.58 0.0
02 05:35 Calm 16.09 Fair CLR -2 -4 86% 76.58 0.0
02 05:15 Calm 16.09 Fair CLR -2 -4 86% 76.58 0.0
02 04:55 Calm 16.09 Fair CLR -2 -4 86% 76.58 0.0
02 04:35 Calm 16.09 Fair CLR -2 -4 86% 76.58 0.0
02 04:15 Calm 16.09 Fair CLR -1 -4 80% 76.58 0.0
02 03:55 Calm 16.09 Fair CLR -2 -4 86% 76.56 0.0
02 03:35 Calm 16.09 Fair CLR -1 -4 80% 76.56 0.0
02 03:15 Calm 16.09 Fair CLR -1 -3 86% 76.56 0.0
02 02:55 Calm 16.09 Fair CLR 0 -4 75% 76.56 0.0
02 02:15 Calm 16.09 Fair CLR 0 -4 75% 76.58 0.0
02 01:55 Calm 16.09 Fair CLR 0 -4 75% 76.58 0.0
02 01:35 Calm 16.09 Fair CLR 0 -4 75% 76.58 0.0
02 01:15 Calm 16.09 Fair CLR 0 -4 75% 76.58 0.0
02 00:55 Calm 16.09 Fair CLR 0 -4 75% 76.58 0.0
02 00:35 Calm 16.09 Fair CLR 1 -4 70% 76.56 0.0
02 00:15 Calm 16.09 Fair CLR 1 -4 70% 76.56 0.0
01 23:55 N 6 16.09 Fair CLR 1 -4 70% 76.56 0.0
01 23:35 N 6 16.09 Fair CLR 2 -4 65% 76.53 0.0
01 23:15 Calm 16.09 Fair CLR 2 -4 65% 76.53 0.0
01 22:55 N 7 16.09 Fair CLR 3 -4 60% 1 76.53 0.0
01 22:35 N 6 16.09 Fair CLR 3 -4 60% 76.53 0.0
01 22:15 N 6 16.09 Fair CLR 4 -5 52% 76.5 0.0
01 21:55 N 9 16.09 Fair CLR 6 -4 49% 4 76.5 0.0
01 21:35 N 9 16.09 Fair CLR 7 -4 46% 5 76.48 0.0
01 21:15 N 15 16.09 Fair CLR 6 -4 49% 3 76.48 0.0
01 20:55 N 15 16.09 Fair CLR 7 -4 46% 5 76.45 0.0
01 20:35 N 13 16.09 Fair CLR 8 -4 43% 6 76.43 0.0
01 20:15 N 11 16.09 Fair CLR 9 -5 37% 8 76.43 0.0
01 19:55 NW 13 G 22 16.09 Fair CLR 10 -4 37% 8 76.4 0.0
01 19:35 N 19 16.09 A Few Clouds FEW075 10 -5 35% 8 76.4 0.0
01 19:15 N 15 G 26 16.09 A Few Clouds FEW075 11 -5 32% 76.38 0.0
01 18:55 N 24 16.09 Partly Cloudy SCT075 12 -5 30% 76.38 0.0
01 18:35 N 24 16.09 Partly Cloudy SCT075 12 -4 33% 76.35 0.0
01 18:15 NW 22 G 31 16.09 Fair CLR 12 -5 30% 76.35 0.0
01 17:55 NW 22 16.09 Fair CLR 12 -4 33% 76.35 0.0
01 17:35 NW 28 G 39 16.09 Fair CLR 13 -5 28% 76.35 0.0
01 17:15 N 22 G 31 16.09 A Few Clouds FEW070 12 -4 33% 76.35 0.0
01 16:55 NW 20 16.09 A Few Clouds FEW070 12 -4 33% 76.35 0.0
01 16:35 NW 26 16.09 Partly Cloudy SCT070 12 -3 35% 76.35 0.0
01 16:15 NW 19 G 31 16.09 Fair CLR 13 -3 33% 76.35 0.0
01 15:55 N 24 G 35 16.09 A Few Clouds FEW070 13 -3 33% 76.35 0.0
01 15:35 NW 30 G 43 16.09 Partly Cloudy SCT070 13 -2 36% 76.35 0.0
01 15:15 NW 20 G 33 16.09 Fair CLR 13 -2 36% 76.38 0.0
01 14:55 NW 24 G 33 16.09 Partly Cloudy SCT065 13 -2 36% 76.38 0.0
01 14:35 N 24 16.09 Partly Cloudy SCT065 13 -2 36% 76.35 0.0
01 14:15 N 22 16.09 A Few Clouds FEW060 14 -1 36% 76.35 0.0
01 13:55 NW 22 G 35 16.09 Fair CLR 13 -1 38% 76.35 0.0
01 13:35 NW 30 16.09 A Few Clouds FEW055 FEW070 12 -1 41% 76.35 0.0
01 13:15 N 22 16.09 A Few Clouds FEW050 FEW070 12 -1 41% 76.38 0.0
01 12:55 N 26 16.09 A Few Clouds FEW055 FEW070 13 0 41% 76.38 0.0
01 12:35 N 28 16.09 A Few Clouds FEW047 FEW055 13 0 41% 76.38 0.0
01 12:15 N 22 G 37 16.09 Partly Cloudy SCT047 SCT055 11 1 50% 76.38 0.0
01 11:55 N 22 G 35 16.09 A Few Clouds FEW046 12 1 47% 76.38 0.0
01 11:35 N 24 G 37 16.09 Partly Cloudy SCT040 11 2 54% 76.38 0.0
01 11:15 N 30 16.09 Partly Cloudy SCT040 12 2 51% 76.35 0.0
01 10:55 N 26 G 37 16.09 Fair CLR 11 2 54% 76.35 0.0
01 10:35 N 19 G 31 16.09 Fair CLR 11 2 54% 76.35 0.0
01 10:15 N 22 16.09 Fair CLR 10 2 58% 7 76.35 0.0
01 09:55 N 24 16.09 Fair CLR 9 2 62% 6 76.35 0.0
01 09:35 NW 22 16.09 Fair CLR 9 2 62% 6 76.35 0.0
01 09:15 NW 20 16.09 Fair CLR 8 2 66% 5 76.35 0.0
01 08:55 NW 20 16.09 Fair CLR 7 1 66% 4 76.33 0.0
01 08:35 NW 20 16.09 Fair CLR 7 1 66% 4 76.33 0.0
01 08:15 NW 22 16.09 Fair CLR 6 1 71% 2 76.33 0.0
01 07:55 W 19 16.09 Fair CLR 5 0 70% 2 76.33 0.0
01 07:35 W 17 16.09 Fair CLR 4 0 75% 1 76.33 0.0
01 07:15 W 11 16.09 Fair CLR 3 -1 75% 0 76.33 0.0
01 06:55 W 11 16.09 Fair CLR 2 -1 81% -1 76.3 0.0
01 06:35 Calm 16.09 Fair CLR 0 -2 87% 76.3 0.0
01 06:15 Calm 16.09 Fair CLR 0 -2 87% 76.3 0.0
01 05:55 SW 6 16.09 Fair CLR -1 -2 93% 76.3 0.0
01 05:35 S 6 16.09 Fair CLR 0 -3 80% 76.3 0.0
01 05:15 Calm 16.09 Fair CLR 0 -3 80% 76.3 0.0
01 04:55 Calm 16.09 A Few Clouds FEW080 0 -2 87% 76.33 0.0
01 04:35 Calm 16.09 Partly Cloudy SCT080 0 -2 87% 76.33 0.0
01 04:15 Calm 16.09 Partly Cloudy SCT080 1 -2 81% 76.33 0.0
01 03:55 Calm 16.09 Fair CLR 1 -2 81% 76.33 0.0
01 03:35 Calm 16.09 Fair CLR 2 -2 75% 76.33 0.0
01 03:15 Calm 16.09 A Few Clouds FEW075 2 -1 81% 76.33 0.0
01 02:55 Calm 16.09 Mostly Cloudy BKN075 2 -1 81% 76.33 0.0
01 02:35 Calm 16.09 Mostly Cloudy SCT075 BKN095 2 -1 81% 76.35 0.0
01 01:55 S 7 16.09 Overcast OVC100 2 -1 81% 0 76.38 0.0
01 01:35 S 7 16.09 Mostly Cloudy BKN110 1 -1 87% -1 76.38 0.0
01 01:15 S 6 16.09 Partly Cloudy SCT110 1 -2 81% 76.4 0.0
01 00:55 Calm 16.09 Partly Cloudy SCT100 2 -2 75% 76.4 0.0
01 00:35 SW 7 16.09 A Few Clouds FEW110 3 -2 70% 1 76.4 0.0
30 23:55 S 7 16.09 Fair CLR 2 -2 75% 0 76.4 0.0
30 23:35 S 7 16.09 Fair CLR 3 -2 70% 1 76.4 0.0
30 23:15 SW 7 16.09 Fair CLR 3 -3 65% 1 76.43 0.0
30 22:55 SW 6 16.09 Fair CLR 3 -3 65% 76.43 0.0
30 22:35 Calm 16.09 Fair CLR 4 -3 61% 76.43 0.0
30 22:15 Calm 16.09 Fair CLR 3 -3 65% 76.43 0.0
30 21:55 Calm 16.09 Fair CLR 5 -3 57% 76.43 0.0
30 21:35 N 6 16.09 Fair CLR 4 -3 61% 76.43 0.0
30 20:55 NW 9 16.09 Fair CLR 4 -2 65% 2 76.4 0.0
30 20:35 N 9 16.09 Fair CLR 6 -3 53% 4 76.38 0.0
30 20:15 N 9 16.09 Fair CLR 8 -3 46% 7 76.38 0.0
Date Time (cdt) Wind (kph) Vis. (km) Weather Sky Cond. Air Dwpt Max. Min. Relative Humidity Wind Chill (°C) Heat Index (°C) altimeter (cm) sea level (mb) 1 hr 3 hr 6 hr
6 hour
Temperature (ºC) Pressure Precipitation (cm)